sensor_id;sensor_type;location;lat;lon;timestamp;pressure;altitude;pressure_sealevel;temperature;humidity
76987;BME280;65922;50.086;8.598;2023-02-26T00:00:53;100470;;;-0.2;68.3
76987;BME280;65922;50.086;8.598;2023-02-26T00:01:53;100470;;;-0.2;68.4
76987;BME280;65922;50.086;8.598;2023-02-26T00:02:53;100470;;;-0.1;68.2
76987;BME280;65922;50.086;8.598;2023-02-26T00:03:53;100470;;;0;67.3
76987;BME280;65922;50.086;8.598;2023-02-26T00:04:53;100470;;;0;67.8
76987;BME280;65922;50.086;8.598;2023-02-26T00:05:53;100470;;;-0.3;69.8
76987;BME280;65922;50.086;8.598;2023-02-26T00:06:53;100470;;;-0.4;69.7
76987;BME280;65922;50.086;8.598;2023-02-26T00:07:53;100470;;;-0.6;70.6
76987;BME280;65922;50.086;8.598;2023-02-26T00:08:53;100470;;;-0.6;71.6
76987;BME280;65922;50.086;8.598;2023-02-26T00:09:53;100470;;;-0.4;70.2
76987;BME280;65922;50.086;8.598;2023-02-26T00:10:53;100470;;;-0.8;71.8
76987;BME280;65922;50.086;8.598;2023-02-26T00:11:53;100480;;;-0.4;69.8
76987;BME280;65922;50.086;8.598;2023-02-26T00:12:53;100480;;;-0.1;68.4
76987;BME280;65922;50.086;8.598;2023-02-26T00:13:53;100480;;;-0.3;70.3
76987;BME280;65922;50.086;8.598;2023-02-26T00:14:53;100480;;;-0.3;69
76987;BME280;65922;50.086;8.598;2023-02-26T00:15:54;100470;;;0;67.4
76987;BME280;65922;50.086;8.598;2023-02-26T00:16:55;100480;;;-0.1;67.8
76987;BME280;65922;50.086;8.598;2023-02-26T00:17:54;100480;;;-0.2;68.1
76987;BME280;65922;50.086;8.598;2023-02-26T00:18:53;100480;;;-0.4;69
76987;BME280;65922;50.086;8.598;2023-02-26T00:19:53;100480;;;-0.5;69.9
76987;BME280;65922;50.086;8.598;2023-02-26T00:20:53;100490;;;-0.7;70.2
76987;BME280;65922;50.086;8.598;2023-02-26T00:21:53;100480;;;-0.9;72
76987;BME280;65922;50.086;8.598;2023-02-26T00:22:53;100490;;;-0.5;70.2
76987;BME280;65922;50.086;8.598;2023-02-26T00:23:53;100490;;;-0.6;71.4
76987;BME280;65922;50.086;8.598;2023-02-26T00:24:53;100490;;;-0.6;71.2
76987;BME280;65922;50.086;8.598;2023-02-26T00:25:53;100480;;;-0.8;73.3
76987;BME280;65922;50.086;8.598;2023-02-26T00:26:53;100490;;;-0.5;71
76987;BME280;65922;50.086;8.598;2023-02-26T00:27:53;100490;;;-0.4;70.1
76987;BME280;65922;50.086;8.598;2023-02-26T00:28:53;100490;;;-0.1;68.4
76987;BME280;65922;50.086;8.598;2023-02-26T00:29:53;100480;;;-0.1;68.3
76987;BME280;65922;50.086;8.598;2023-02-26T00:30:53;100480;;;-0.3;69.4
76987;BME280;65922;50.086;8.598;2023-02-26T00:31:53;100490;;;-0.4;69.8
76987;BME280;65922;50.086;8.598;2023-02-26T00:32:53;100490;;;-0.3;69.4
76987;BME280;65922;50.086;8.598;2023-02-26T00:33:54;100480;;;-0.3;69.7
76987;BME280;65922;50.086;8.598;2023-02-26T00:34:53;100480;;;-0.3;69.9
76987;BME280;65922;50.086;8.598;2023-02-26T00:35:54;100490;;;-0.5;70.4
76987;BME280;65922;50.086;8.598;2023-02-26T00:36:58;100480;;;-0.5;71.7
76987;BME280;65922;50.086;8.598;2023-02-26T00:37:56;100490;;;-0.2;69.5
76987;BME280;65922;50.086;8.598;2023-02-26T00:38:57;100490;;;0.1;68.2
76987;BME280;65922;50.086;8.598;2023-02-26T00:39:55;100480;;;0.2;67.2
76987;BME280;65922;50.086;8.598;2023-02-26T00:40:53;100490;;;0.2;67
76987;BME280;65922;50.086;8.598;2023-02-26T00:41:53;100490;;;0.1;67.8
76987;BME280;65922;50.086;8.598;2023-02-26T00:42:53;100490;;;0.2;66.8
76987;BME280;65922;50.086;8.598;2023-02-26T00:43:53;100490;;;0.3;66.6
76987;BME280;65922;50.086;8.598;2023-02-26T00:44:53;100480;;;0.4;66.5
76987;BME280;65922;50.086;8.598;2023-02-26T00:45:55;100490;;;0.3;66.4
76987;BME280;65922;50.086;8.598;2023-02-26T00:46:54;100490;;;0.3;66.4
76987;BME280;65922;50.086;8.598;2023-02-26T00:47:54;100490;;;0.3;66.8
76987;BME280;65922;50.086;8.598;2023-02-26T00:48:54;100490;;;0.4;66.2
76987;BME280;65922;50.086;8.598;2023-02-26T00:49:56;100490;;;0.4;66.1
76987;BME280;65922;50.086;8.598;2023-02-26T00:50:54;100490;;;0.4;66.3
76987;BME280;65922;50.086;8.598;2023-02-26T00:51:54;100500;;;0.3;67.2
76987;BME280;65922;50.086;8.598;2023-02-26T00:52:56;100490;;;0.3;66.5
76987;BME280;65922;50.086;8.598;2023-02-26T00:53:54;100500;;;0.2;67.4
76987;BME280;65922;50.086;8.598;2023-02-26T00:54:53;100500;;;0.1;67.8
76987;BME280;65922;50.086;8.598;2023-02-26T00:55:53;100490;;;0.1;68.5
76987;BME280;65922;50.086;8.598;2023-02-26T00:56:53;100500;;;0.2;67.9
76987;BME280;65922;50.086;8.598;2023-02-26T00:57:53;100500;;;0.3;66.9
76987;BME280;65922;50.086;8.598;2023-02-26T00:58:53;100500;;;0.3;67.3
76987;BME280;65922;50.086;8.598;2023-02-26T00:59:53;100500;;;0.2;68
76987;BME280;65922;50.086;8.598;2023-02-26T01:00:53;100500;;;0.3;67.3
76987;BME280;65922;50.086;8.598;2023-02-26T01:01:53;100490;;;0.3;66.8
76987;BME280;65922;50.086;8.598;2023-02-26T01:02:53;100500;;;0.3;67.2
76987;BME280;65922;50.086;8.598;2023-02-26T01:03:53;100500;;;0.2;68
76987;BME280;65922;50.086;8.598;2023-02-26T01:04:53;100490;;;0.2;68
76987;BME280;65922;50.086;8.598;2023-02-26T01:05:53;100500;;;0.2;67.6
76987;BME280;65922;50.086;8.598;2023-02-26T01:06:53;100490;;;0.3;67.5
76987;BME280;65922;50.086;8.598;2023-02-26T01:07:55;100500;;;0.1;68.5
76987;BME280;65922;50.086;8.598;2023-02-26T01:08:54;100490;;;0.2;68.2
76987;BME280;65922;50.086;8.598;2023-02-26T01:09:53;100480;;;0;70.2
76987;BME280;65922;50.086;8.598;2023-02-26T01:10:53;100490;;;0.1;69.3
76987;BME280;65922;50.086;8.598;2023-02-26T01:11:54;100490;;;0.3;67.4
76987;BME280;65922;50.086;8.598;2023-02-26T01:12:53;100490;;;0.3;67.3
76987;BME280;65922;50.086;8.598;2023-02-26T01:13:53;100490;;;0.4;67
76987;BME280;65922;50.086;8.598;2023-02-26T01:14:53;100490;;;0.4;67.5
76987;BME280;65922;50.086;8.598;2023-02-26T01:15:54;100490;;;0.4;66.2
76987;BME280;65922;50.086;8.598;2023-02-26T01:16:55;100490;;;0.4;67.3
76987;BME280;65922;50.086;8.598;2023-02-26T01:17:54;100490;;;0.3;67.2
76987;BME280;65922;50.086;8.598;2023-02-26T01:18:54;100490;;;0.3;67.9
76987;BME280;65922;50.086;8.598;2023-02-26T01:19:53;100490;;;0.3;67.9
76987;BME280;65922;50.086;8.598;2023-02-26T01:20:56;100490;;;0.3;68.7
76987;BME280;65922;50.086;8.598;2023-02-26T01:21:54;100500;;;0.3;67.8
76987;BME280;65922;50.086;8.598;2023-02-26T01:22:53;100500;;;0.4;67.1
76987;BME280;65922;50.086;8.598;2023-02-26T01:23:53;100500;;;0.4;67.3
76987;BME280;65922;50.086;8.598;2023-02-26T01:24:54;100500;;;0.4;67.5
76987;BME280;65922;50.086;8.598;2023-02-26T01:25:54;100500;;;0.3;68.1
76987;BME280;65922;50.086;8.598;2023-02-26T01:26:53;100500;;;0.4;67.6
76987;BME280;65922;50.086;8.598;2023-02-26T01:27:53;100500;;;0.3;68
76987;BME280;65922;50.086;8.598;2023-02-26T01:28:53;100510;;;0.4;66.9
76987;BME280;65922;50.086;8.598;2023-02-26T01:29:53;100510;;;0.4;67.1
76987;BME280;65922;50.086;8.598;2023-02-26T01:30:53;100510;;;0.4;68
76987;BME280;65922;50.086;8.598;2023-02-26T01:31:53;100500;;;0.3;68
76987;BME280;65922;50.086;8.598;2023-02-26T01:32:54;100510;;;0.4;67.4
76987;BME280;65922;50.086;8.598;2023-02-26T01:33:54;100510;;;0.5;66.9
76987;BME280;65922;50.086;8.598;2023-02-26T01:34:54;100510;;;0.6;66.3
76987;BME280;65922;50.086;8.598;2023-02-26T01:35:53;100520;;;0.6;66.8
76987;BME280;65922;50.086;8.598;2023-02-26T01:36:55;100510;;;0.4;67.4
76987;BME280;65922;50.086;8.598;2023-02-26T01:37:55;100520;;;0.5;67.1
76987;BME280;65922;50.086;8.598;2023-02-26T01:38:56;100510;;;0.5;66.9
76987;BME280;65922;50.086;8.598;2023-02-26T01:39:58;100520;;;0.6;66.4
76987;BME280;65922;50.086;8.598;2023-02-26T01:41:11;100510;;;0.6;66.9
76987;BME280;65922;50.086;8.598;2023-02-26T01:41:53;100510;;;0.6;66.9
76987;BME280;65922;50.086;8.598;2023-02-26T01:42:53;100520;;;0.5;67.3
76987;BME280;65922;50.086;8.598;2023-02-26T01:43:56;100520;;;0.5;67.9
76987;BME280;65922;50.086;8.598;2023-02-26T01:44:54;100510;;;0.5;67.9
76987;BME280;65922;50.086;8.598;2023-02-26T01:45:54;100510;;;0.6;67.4
76987;BME280;65922;50.086;8.598;2023-02-26T01:46:56;100520;;;0.6;66.6
76987;BME280;65922;50.086;8.598;2023-02-26T01:47:54;100520;;;0.6;66.8
76987;BME280;65922;50.086;8.598;2023-02-26T01:48:54;100520;;;0.6;67.2
76987;BME280;65922;50.086;8.598;2023-02-26T01:49:53;100520;;;0.6;67
76987;BME280;65922;50.086;8.598;2023-02-26T01:50:53;100530;;;0.5;67.7
76987;BME280;65922;50.086;8.598;2023-02-26T01:51:53;100520;;;0.6;67.3
76987;BME280;65922;50.086;8.598;2023-02-26T01:53:06;100530;;;0.4;68.3
76987;BME280;65922;50.086;8.598;2023-02-26T01:53:53;100530;;;0.5;67.9
76987;BME280;65922;50.086;8.598;2023-02-26T01:54:53;100530;;;0.4;68.3
76987;BME280;65922;50.086;8.598;2023-02-26T01:55:54;100530;;;0.4;68.4
76987;BME280;65922;50.086;8.598;2023-02-26T01:56:55;100540;;;0.3;68.7
76987;BME280;65922;50.086;8.598;2023-02-26T01:57:54;100540;;;0.3;69.3
76987;BME280;65922;50.086;8.598;2023-02-26T01:58:53;100530;;;0.3;68.8
76987;BME280;65922;50.086;8.598;2023-02-26T01:59:53;100530;;;0.5;67.7
76987;BME280;65922;50.086;8.598;2023-02-26T02:00:53;100530;;;0.4;68.5
76987;BME280;65922;50.086;8.598;2023-02-26T02:01:53;100530;;;0.3;69.1
76987;BME280;65922;50.086;8.598;2023-02-26T02:02:53;100540;;;0.3;69.6
76987;BME280;65922;50.086;8.598;2023-02-26T02:03:53;100530;;;0.2;70.1
76987;BME280;65922;50.086;8.598;2023-02-26T02:04:53;100530;;;0.1;69.9
76987;BME280;65922;50.086;8.598;2023-02-26T02:05:54;100530;;;0.1;70.4
76987;BME280;65922;50.086;8.598;2023-02-26T02:06:53;100530;;;0.2;69.8
76987;BME280;65922;50.086;8.598;2023-02-26T02:07:53;100530;;;0.2;69.9
76987;BME280;65922;50.086;8.598;2023-02-26T02:08:53;100530;;;0.3;69.6
76987;BME280;65922;50.086;8.598;2023-02-26T02:09:53;100530;;;0.3;69.7
76987;BME280;65922;50.086;8.598;2023-02-26T02:10:53;100530;;;0.3;69.3
76987;BME280;65922;50.086;8.598;2023-02-26T02:11:59;100530;;;0.2;70.3
76987;BME280;65922;50.086;8.598;2023-02-26T02:12:54;100540;;;0.2;70.3
76987;BME280;65922;50.086;8.598;2023-02-26T02:13:56;100540;;;0.3;70.1
76987;BME280;65922;50.086;8.598;2023-02-26T02:14:55;100540;;;0.2;70.9
76987;BME280;65922;50.086;8.598;2023-02-26T02:15:54;100540;;;0.2;70.6
76987;BME280;65922;50.086;8.598;2023-02-26T02:16:54;100530;;;0.2;70.4
76987;BME280;65922;50.086;8.598;2023-02-26T02:17:54;100540;;;0.3;70.3
76987;BME280;65922;50.086;8.598;2023-02-26T02:18:55;100540;;;0.2;70.9
76987;BME280;65922;50.086;8.598;2023-02-26T02:19:54;100540;;;0.2;71.3
76987;BME280;65922;50.086;8.598;2023-02-26T02:20:58;100550;;;0.3;70.7
76987;BME280;65922;50.086;8.598;2023-02-26T02:21:53;100540;;;0.3;70.9
76987;BME280;65922;50.086;8.598;2023-02-26T02:22:57;100560;;;0.3;70.7
76987;BME280;65922;50.086;8.598;2023-02-26T02:23:54;100550;;;0.3;70.7
76987;BME280;65922;50.086;8.598;2023-02-26T02:24:57;100550;;;0.3;71.1
76987;BME280;65922;50.086;8.598;2023-02-26T02:25:57;100550;;;0.3;71.1
76987;BME280;65922;50.086;8.598;2023-02-26T02:26:57;100550;;;0.3;71.2
76987;BME280;65922;50.086;8.598;2023-02-26T02:27:55;100550;;;0.3;71
76987;BME280;65922;50.086;8.598;2023-02-26T02:28:58;100540;;;0.4;70.8
76987;BME280;65922;50.086;8.598;2023-02-26T02:29:59;100560;;;0.4;71.3
76987;BME280;65922;50.086;8.598;2023-02-26T02:30:55;100560;;;0.3;72
76987;BME280;65922;50.086;8.598;2023-02-26T02:31:54;100560;;;0.3;72.1
76987;BME280;65922;50.086;8.598;2023-02-26T02:32:54;100570;;;0.3;72.5
76987;BME280;65922;50.086;8.598;2023-02-26T02:33:54;100560;;;0.3;72.6
76987;BME280;65922;50.086;8.598;2023-02-26T02:34:54;100560;;;0.3;73
76987;BME280;65922;50.086;8.598;2023-02-26T02:35:53;100570;;;0.3;73.3
76987;BME280;65922;50.086;8.598;2023-02-26T02:36:54;100560;;;0.3;73.6
76987;BME280;65922;50.086;8.598;2023-02-26T02:37:53;100570;;;0.2;74.2
76987;BME280;65922;50.086;8.598;2023-02-26T02:38:54;100570;;;0.2;74.4
76987;BME280;65922;50.086;8.598;2023-02-26T02:39:54;100570;;;0.2;74.6
76987;BME280;65922;50.086;8.598;2023-02-26T02:40:55;100560;;;0.1;75
76987;BME280;65922;50.086;8.598;2023-02-26T02:41:53;100560;;;0;75.4
76987;BME280;65922;50.086;8.598;2023-02-26T02:42:54;100550;;;0.1;75.3
76987;BME280;65922;50.086;8.598;2023-02-26T02:43:53;100570;;;0;75.4
76987;BME280;65922;50.086;8.598;2023-02-26T02:44:54;100560;;;0;76
76987;BME280;65922;50.086;8.598;2023-02-26T02:45:53;100560;;;0;76
76987;BME280;65922;50.086;8.598;2023-02-26T02:46:54;100560;;;-0.1;76.3
76987;BME280;65922;50.086;8.598;2023-02-26T02:47:54;100550;;;-0.1;76.2
76987;BME280;65922;50.086;8.598;2023-02-26T02:48:53;100570;;;-0.2;76.4
76987;BME280;65922;50.086;8.598;2023-02-26T02:49:54;100570;;;-0.2;76.4
76987;BME280;65922;50.086;8.598;2023-02-26T02:50:54;100570;;;-0.2;76.7
76987;BME280;65922;50.086;8.598;2023-02-26T02:51:53;100570;;;-0.2;76.6
76987;BME280;65922;50.086;8.598;2023-02-26T02:52:54;100580;;;-0.2;76.7
76987;BME280;65922;50.086;8.598;2023-02-26T02:53:53;100570;;;-0.3;77
76987;BME280;65922;50.086;8.598;2023-02-26T02:54:54;100570;;;-0.4;77.6
76987;BME280;65922;50.086;8.598;2023-02-26T02:55:53;100570;;;-0.4;77.6
76987;BME280;65922;50.086;8.598;2023-02-26T02:56:54;100570;;;-0.4;77.6
76987;BME280;65922;50.086;8.598;2023-02-26T02:57:54;100570;;;-0.4;77.7
76987;BME280;65922;50.086;8.598;2023-02-26T02:58:54;100570;;;-0.3;77.3
76987;BME280;65922;50.086;8.598;2023-02-26T02:59:54;100570;;;-0.2;76.7
76987;BME280;65922;50.086;8.598;2023-02-26T03:00:53;100580;;;-0.3;77.3
76987;BME280;65922;50.086;8.598;2023-02-26T03:01:56;100580;;;-0.3;77.2
76987;BME280;65922;50.086;8.598;2023-02-26T03:02:54;100570;;;-0.2;76.9
76987;BME280;65922;50.086;8.598;2023-02-26T03:03:54;100570;;;-0.3;77.3
76987;BME280;65922;50.086;8.598;2023-02-26T03:04:53;100570;;;-0.3;77.3
76987;BME280;65922;50.086;8.598;2023-02-26T03:05:53;100570;;;-0.5;77.7
76987;BME280;65922;50.086;8.598;2023-02-26T03:06:53;100570;;;-0.5;78
76987;BME280;65922;50.086;8.598;2023-02-26T03:07:55;100570;;;-0.6;78.5
76987;BME280;65922;50.086;8.598;2023-02-26T03:08:53;100570;;;-0.6;78.6
76987;BME280;65922;50.086;8.598;2023-02-26T03:09:53;100580;;;-0.7;79.3
76987;BME280;65922;50.086;8.598;2023-02-26T03:10:53;100570;;;-0.6;78.9
76987;BME280;65922;50.086;8.598;2023-02-26T03:11:53;100570;;;-0.6;78.6
76987;BME280;65922;50.086;8.598;2023-02-26T03:12:53;100580;;;-0.5;78.4
76987;BME280;65922;50.086;8.598;2023-02-26T03:13:53;100570;;;-0.6;78.4
76987;BME280;65922;50.086;8.598;2023-02-26T03:14:53;100580;;;-0.5;78.3
76987;BME280;65922;50.086;8.598;2023-02-26T03:15:56;100580;;;-0.4;77.9
76987;BME280;65922;50.086;8.598;2023-02-26T03:16:58;100580;;;-0.6;78.3
76987;BME280;65922;50.086;8.598;2023-02-26T03:17:53;100580;;;-0.6;79
76987;BME280;65922;50.086;8.598;2023-02-26T03:18:55;100580;;;-0.6;78.9
76987;BME280;65922;50.086;8.598;2023-02-26T03:19:57;100580;;;-0.5;78.4
76987;BME280;65922;50.086;8.598;2023-02-26T03:20:55;100590;;;-0.5;78.2
76987;BME280;65922;50.086;8.598;2023-02-26T03:21:55;100590;;;-0.6;78.4
76987;BME280;65922;50.086;8.598;2023-02-26T03:22:57;100590;;;-0.6;78.7
76987;BME280;65922;50.086;8.598;2023-02-26T03:23:54;100590;;;-0.6;78.6
76987;BME280;65922;50.086;8.598;2023-02-26T03:24:54;100600;;;-0.6;78.3
76987;BME280;65922;50.086;8.598;2023-02-26T03:25:54;100600;;;-0.6;78.5
76987;BME280;65922;50.086;8.598;2023-02-26T03:26:53;100600;;;-0.7;78.8
76987;BME280;65922;50.086;8.598;2023-02-26T03:27:54;100600;;;-0.6;78.3
76987;BME280;65922;50.086;8.598;2023-02-26T03:28:53;100600;;;-0.6;78.5
76987;BME280;65922;50.086;8.598;2023-02-26T03:29:54;100600;;;-0.7;78.7
76987;BME280;65922;50.086;8.598;2023-02-26T03:30:54;100600;;;-0.8;78.8
76987;BME280;65922;50.086;8.598;2023-02-26T03:31:53;100600;;;-0.9;79.7
76987;BME280;65922;50.086;8.598;2023-02-26T03:32:55;100610;;;-0.9;79.6
76987;BME280;65922;50.086;8.598;2023-02-26T03:33:53;100610;;;-0.7;79.1
76987;BME280;65922;50.086;8.598;2023-02-26T03:34:54;100610;;;-0.6;78.4
76987;BME280;65922;50.086;8.598;2023-02-26T03:35:54;100620;;;-0.6;77.9
76987;BME280;65922;50.086;8.598;2023-02-26T03:36:54;100600;;;-0.6;78.4
76987;BME280;65922;50.086;8.598;2023-02-26T03:37:53;100610;;;-0.7;78.7
76987;BME280;65922;50.086;8.598;2023-02-26T03:38:54;100610;;;-0.6;77.9
76987;BME280;65922;50.086;8.598;2023-02-26T03:39:53;100610;;;-0.6;78
76987;BME280;65922;50.086;8.598;2023-02-26T03:40:54;100610;;;-0.6;78.1
76987;BME280;65922;50.086;8.598;2023-02-26T03:41:54;100610;;;-0.9;78.8
76987;BME280;65922;50.086;8.598;2023-02-26T03:42:54;100610;;;-0.6;77.8
76987;BME280;65922;50.086;8.598;2023-02-26T03:43:54;100610;;;-0.6;77.6
76987;BME280;65922;50.086;8.598;2023-02-26T03:45:08;100610;;;-0.6;77.6
76987;BME280;65922;50.086;8.598;2023-02-26T03:45:53;100620;;;-0.6;77.3
76987;BME280;65922;50.086;8.598;2023-02-26T03:46:55;100620;;;-0.7;77.3
76987;BME280;65922;50.086;8.598;2023-02-26T03:47:53;100620;;;-0.7;77.5
76987;BME280;65922;50.086;8.598;2023-02-26T03:48:53;100620;;;-0.8;77.5
76987;BME280;65922;50.086;8.598;2023-02-26T03:49:54;100630;;;-0.8;77.7
76987;BME280;65922;50.086;8.598;2023-02-26T03:50:53;100630;;;-0.7;77.4
76987;BME280;65922;50.086;8.598;2023-02-26T03:51:54;100620;;;-0.9;77.8
76987;BME280;65922;50.086;8.598;2023-02-26T03:52:53;100620;;;-0.8;77.8
76987;BME280;65922;50.086;8.598;2023-02-26T03:53:54;100620;;;-0.6;76.9
76987;BME280;65922;50.086;8.598;2023-02-26T03:54:55;100630;;;-0.6;76.7
76987;BME280;65922;50.086;8.598;2023-02-26T03:55:54;100630;;;-0.7;76.8
76987;BME280;65922;50.086;8.598;2023-02-26T03:56:53;100640;;;-0.6;76.3
76987;BME280;65922;50.086;8.598;2023-02-26T03:57:53;100640;;;-0.7;76.8
76987;BME280;65922;50.086;8.598;2023-02-26T03:58:53;100640;;;-0.8;77.1
76987;BME280;65922;50.086;8.598;2023-02-26T03:59:53;100640;;;-0.6;76.4
76987;BME280;65922;50.086;8.598;2023-02-26T04:00:53;100640;;;-0.7;76.6
76987;BME280;65922;50.086;8.598;2023-02-26T04:01:53;100640;;;-0.8;76.9
76987;BME280;65922;50.086;8.598;2023-02-26T04:02:54;100640;;;-0.7;76.6
76987;BME280;65922;50.086;8.598;2023-02-26T04:03:54;100640;;;-0.7;76.5
76987;BME280;65922;50.086;8.598;2023-02-26T04:04:54;100640;;;-0.6;76.5
76987;BME280;65922;50.086;8.598;2023-02-26T04:05:53;100650;;;-0.7;76.8
76987;BME280;65922;50.086;8.598;2023-02-26T04:06:53;100650;;;-0.8;76.9
76987;BME280;65922;50.086;8.598;2023-02-26T04:07:53;100650;;;-0.6;76.4
76987;BME280;65922;50.086;8.598;2023-02-26T04:08:53;100650;;;-0.7;76.6
76987;BME280;65922;50.086;8.598;2023-02-26T04:09:53;100660;;;-0.6;76.5
76987;BME280;65922;50.086;8.598;2023-02-26T04:10:53;100660;;;-0.7;76.7
76987;BME280;65922;50.086;8.598;2023-02-26T04:11:53;100650;;;-0.7;76.9
76987;BME280;65922;50.086;8.598;2023-02-26T04:12:57;100660;;;-0.8;77.4
76987;BME280;65922;50.086;8.598;2023-02-26T04:13:53;100650;;;-0.8;77.3
76987;BME280;65922;50.086;8.598;2023-02-26T04:14:53;100660;;;-0.9;77.7
76987;BME280;65922;50.086;8.598;2023-02-26T04:15:53;100660;;;-1;78.3
76987;BME280;65922;50.086;8.598;2023-02-26T04:16:53;100660;;;-1;78.4
76987;BME280;65922;50.086;8.598;2023-02-26T04:17:53;100670;;;-0.8;77.6
76987;BME280;65922;50.086;8.598;2023-02-26T04:18:53;100670;;;-0.9;77.6
76987;BME280;65922;50.086;8.598;2023-02-26T04:19:53;100670;;;-0.8;77.5
76987;BME280;65922;50.086;8.598;2023-02-26T04:20:53;100670;;;-0.9;77.8
76987;BME280;65922;50.086;8.598;2023-02-26T04:21:53;100670;;;-1;78.1
76987;BME280;65922;50.086;8.598;2023-02-26T04:22:53;100670;;;-0.9;78.1
76987;BME280;65922;50.086;8.598;2023-02-26T04:23:53;100660;;;-0.7;77.4
76987;BME280;65922;50.086;8.598;2023-02-26T04:24:53;100670;;;-0.7;77.3
76987;BME280;65922;50.086;8.598;2023-02-26T04:25:53;100670;;;-0.9;77.9
76987;BME280;65922;50.086;8.598;2023-02-26T04:26:53;100660;;;-0.8;77.9
76987;BME280;65922;50.086;8.598;2023-02-26T04:27:53;100670;;;-0.8;77.7
76987;BME280;65922;50.086;8.598;2023-02-26T04:28:53;100670;;;-0.7;77
76987;BME280;65922;50.086;8.598;2023-02-26T04:29:53;100670;;;-0.9;77.7
76987;BME280;65922;50.086;8.598;2023-02-26T04:30:53;100660;;;-1;78.2
76987;BME280;65922;50.086;8.598;2023-02-26T04:31:53;100660;;;-0.9;78
76987;BME280;65922;50.086;8.598;2023-02-26T04:32:53;100660;;;-0.9;78.2
76987;BME280;65922;50.086;8.598;2023-02-26T04:33:53;100660;;;-0.9;78.1
76987;BME280;65922;50.086;8.598;2023-02-26T04:34:53;100660;;;-0.9;78.2
76987;BME280;65922;50.086;8.598;2023-02-26T04:35:53;100670;;;-0.9;78.1
76987;BME280;65922;50.086;8.598;2023-02-26T04:36:53;100670;;;-0.9;77.8
76987;BME280;65922;50.086;8.598;2023-02-26T04:37:53;100670;;;-0.8;77.5
76987;BME280;65922;50.086;8.598;2023-02-26T04:38:53;100670;;;-0.9;77.5
76987;BME280;65922;50.086;8.598;2023-02-26T04:39:53;100670;;;-0.9;77.4
76987;BME280;65922;50.086;8.598;2023-02-26T04:40:53;100670;;;-0.9;77.6
76987;BME280;65922;50.086;8.598;2023-02-26T04:41:53;100670;;;-0.8;77.1
76987;BME280;65922;50.086;8.598;2023-02-26T04:42:53;100680;;;-0.8;76.8
76987;BME280;65922;50.086;8.598;2023-02-26T04:43:53;100670;;;-0.9;77.4
76987;BME280;65922;50.086;8.598;2023-02-26T04:44:53;100670;;;-1;77.8
76987;BME280;65922;50.086;8.598;2023-02-26T04:45:53;100680;;;-1;77.9
76987;BME280;65922;50.086;8.598;2023-02-26T04:46:53;100680;;;-1.2;78.5
76987;BME280;65922;50.086;8.598;2023-02-26T04:47:53;100680;;;-0.9;77.3
76987;BME280;65922;50.086;8.598;2023-02-26T04:48:53;100680;;;-0.9;77.3
76987;BME280;65922;50.086;8.598;2023-02-26T04:49:53;100680;;;-1;77.3
76987;BME280;65922;50.086;8.598;2023-02-26T04:50:53;100680;;;-1.1;77.8
76987;BME280;65922;50.086;8.598;2023-02-26T04:51:53;100680;;;-1.1;77.9
76987;BME280;65922;50.086;8.598;2023-02-26T04:52:53;100680;;;-1.2;78.3
76987;BME280;65922;50.086;8.598;2023-02-26T04:53:53;100690;;;-1.1;77.9
76987;BME280;65922;50.086;8.598;2023-02-26T04:54:53;100680;;;-1;77.4
76987;BME280;65922;50.086;8.598;2023-02-26T04:55:53;100690;;;-1.2;78.1
76987;BME280;65922;50.086;8.598;2023-02-26T04:56:53;100690;;;-1.1;78.1
76987;BME280;65922;50.086;8.598;2023-02-26T04:57:53;100690;;;-1.2;78.2
76987;BME280;65922;50.086;8.598;2023-02-26T04:58:53;100690;;;-1;77.4
76987;BME280;65922;50.086;8.598;2023-02-26T04:59:53;100690;;;-1;77.3
76987;BME280;65922;50.086;8.598;2023-02-26T05:00:53;100690;;;-1.1;77.5
76987;BME280;65922;50.086;8.598;2023-02-26T05:01:53;100690;;;-1.1;77.5
76987;BME280;65922;50.086;8.598;2023-02-26T05:02:53;100700;;;-1.1;77.3
76987;BME280;65922;50.086;8.598;2023-02-26T05:03:53;100690;;;-1.2;78
76987;BME280;65922;50.086;8.598;2023-02-26T05:04:53;100690;;;-1.1;77.7
76987;BME280;65922;50.086;8.598;2023-02-26T05:05:53;100690;;;-1.1;77.5
76987;BME280;65922;50.086;8.598;2023-02-26T05:06:53;100690;;;-1.1;77.8
76987;BME280;65922;50.086;8.598;2023-02-26T05:07:53;100700;;;-1.1;77.7
76987;BME280;65922;50.086;8.598;2023-02-26T05:08:53;100710;;;-1.1;77
76987;BME280;65922;50.086;8.598;2023-02-26T05:09:53;100700;;;-1;77
76987;BME280;65922;50.086;8.598;2023-02-26T05:10:53;100700;;;-1.1;77.1
76987;BME280;65922;50.086;8.598;2023-02-26T05:11:53;100700;;;-1.2;77.4
76987;BME280;65922;50.086;8.598;2023-02-26T05:12:53;100700;;;-1.2;77.4
76987;BME280;65922;50.086;8.598;2023-02-26T05:13:53;100700;;;-1.1;76.5
76987;BME280;65922;50.086;8.598;2023-02-26T05:14:53;100720;;;-1;76.5
76987;BME280;65922;50.086;8.598;2023-02-26T05:15:53;100710;;;-1;76.1
76987;BME280;65922;50.086;8.598;2023-02-26T05:16:53;100700;;;-1;76.2
76987;BME280;65922;50.086;8.598;2023-02-26T05:17:53;100710;;;-1;76.2
76987;BME280;65922;50.086;8.598;2023-02-26T05:18:53;100710;;;-1;76.3
76987;BME280;65922;50.086;8.598;2023-02-26T05:19:53;100700;;;-1.2;76.6
76987;BME280;65922;50.086;8.598;2023-02-26T05:20:53;100710;;;-1.4;77.4
76987;BME280;65922;50.086;8.598;2023-02-26T05:21:53;100710;;;-1.2;77.2
76987;BME280;65922;50.086;8.598;2023-02-26T05:22:53;100710;;;-1.2;77
76987;BME280;65922;50.086;8.598;2023-02-26T05:23:53;100710;;;-1.1;76.7
76987;BME280;65922;50.086;8.598;2023-02-26T05:24:53;100710;;;-1.1;76.7
76987;BME280;65922;50.086;8.598;2023-02-26T05:25:53;100720;;;-1;75.8
76987;BME280;65922;50.086;8.598;2023-02-26T05:26:53;100710;;;-1;75.2
76987;BME280;65922;50.086;8.598;2023-02-26T05:27:53;100720;;;-1;75.4
76987;BME280;65922;50.086;8.598;2023-02-26T05:28:53;100720;;;-1;75.9
76987;BME280;65922;50.086;8.598;2023-02-26T05:29:53;100720;;;-1.1;76.1
76987;BME280;65922;50.086;8.598;2023-02-26T05:30:54;100730;;;-1.2;76.6
76987;BME280;65922;50.086;8.598;2023-02-26T05:31:53;100730;;;-1.3;76.6
76987;BME280;65922;50.086;8.598;2023-02-26T05:32:53;100730;;;-1.2;76.4
76987;BME280;65922;50.086;8.598;2023-02-26T05:33:53;100730;;;-1.3;76.5
76987;BME280;65922;50.086;8.598;2023-02-26T05:34:53;100730;;;-1.4;76.9
76987;BME280;65922;50.086;8.598;2023-02-26T05:35:53;100730;;;-1.4;77.1
76987;BME280;65922;50.086;8.598;2023-02-26T05:36:53;100730;;;-1.2;76.5
76987;BME280;65922;50.086;8.598;2023-02-26T05:37:53;100740;;;-1.3;76.4
76987;BME280;65922;50.086;8.598;2023-02-26T05:38:53;100740;;;-1.3;76.3